Coles Point, Australia
Current Conditions -  °F | °C
As of 2:00 PM on Wednesday 26 Nov 2014 (Local Time) from YWHA Reporting Station
Clear Clear  
Wind Chill: 72°   Ceiling: Unl
Heat Index: 72°   Visibility: 6mi
Dew Point: 52°   Wind: 17mph
Humidity: 50%   Direction: 180°S
Pressure: 30.12"   Gusts: NA
Location:  34.38°S, 135.37°E
Report Text: YWHA 260400Z AUTO 18015KT 9999 // NCD 22/11 Q1020
Loading
Personal Weather Stations






























Interactive Weather Map New forecast layout! Learn more

10-Day Weather Forecast

Advertisements
Track Severe Weather on mobile